Middle Georgia Regional Airport
KMCN : now visible

Airfield :











YOU CAN JOIN US ON...

 
LOGIN :

Register | Disclaimer

   EN    FR    IT 

 









Legend :    VFR   Marginal VFR   IFR   Intensive IFR   Very Intensive IFR
Visi :
Ceiling :
>= 8 km
>= 3000ft
5 to 8 km
1000 to 3000 ft
1500m to 5 km
500 to 1000 ft
800 to 1500m
200 to 500 ft
< 800m
< 200 ft
Symbols :   Thunderstorms  Fog  Heavy snow  Heavy precipitations  Wind > 20 kt






- Airport Elevation : 354 ft
- IATA code : MCN


KMCN - Middle Georgia Regional

CURRENT METAR :
  • 251853Z 35004KT 10SM OVC037 26/18 A2992 RMK AO2 SLP129 T02560183

EXPIRED METARs :
  • 251753Z 32007KT 10SM OVC032 26/18 A2994 RMK AO2 SLP136 T02560183 10261 20206 58010
  • 251744Z 31003KT 10SM FEW022 BKN030 26/19 A2995 RMK AO2 T02560189
  • 251653Z 33004KT 10SM OVC026 25/19 A2997 RMK AO2 SLP143 T02500189

TAF KMCN
Valid from the 25 at 18:00 until the 26 at 18:00 UTC


251728Z 2518/2618 33004KT P6SM BKN025
FM252100 34003KT P6SM SCT035
FM260000 03003KT P6SM SCT045
FM260500 04004KT P6SM SCT008 BKN020
FM260700 04004KT 5SM BR BKN005
FM260900 04004KT 4SM BR BKN003
FM261500 04004KT P6SM BKN007
KZTL FIR / North America



MET'MAP, your aeronautical weather chart ! - Copyright ORBIFLY December 2007 - Disclaimer

ORBIFLY MET'MAP TEAM :

Programming & Development : Alexandra Zaïnal
Concept & original design : Baudouin d'Aumeries
Assistance for programming : Marc-Olivier Méhu
Technical & hardware support : Manuel Goepfert

Contact : metmap@orbifly.com




SOURCES & CREDITS :

   NOAA       Earth
Advisory